sensor_id;sensor_type;location;lat;lon;timestamp;P1;durP1;ratioP1;P2;durP2;ratioP2
40983;SDS011;26714;51.332;12.406;2024-03-06T00:00:55;19.65;;;10.15;;
40983;SDS011;26714;51.332;12.406;2024-03-06T00:03:23;19.48;;;8.98;;
40983;SDS011;26714;51.332;12.406;2024-03-06T00:05:48;31.08;;;9.60;;
40983;SDS011;26714;51.332;12.406;2024-03-06T00:08:17;20.58;;;9.43;;
40983;SDS011;26714;51.332;12.406;2024-03-06T00:10:46;22.30;;;9.68;;
40983;SDS011;26714;51.332;12.406;2024-03-06T00:13:12;25.20;;;9.77;;
40983;SDS011;26714;51.332;12.406;2024-03-06T00:15:40;14.95;;;9.20;;
40983;SDS011;26714;51.332;12.406;2024-03-06T00:18:08;17.63;;;9.37;;
40983;SDS011;26714;51.332;12.406;2024-03-06T00:21:01;22.80;;;11.40;;
40983;SDS011;26714;51.332;12.406;2024-03-06T00:23:30;22.30;;;9.60;;
40983;SDS011;26714;51.332;12.406;2024-03-06T00:25:56;16.35;;;9.55;;
40983;SDS011;26714;51.332;12.406;2024-03-06T00:28:24;27.27;;;11.18;;
40983;SDS011;26714;51.332;12.406;2024-03-06T00:30:51;19.00;;;10.18;;
40983;SDS011;26714;51.332;12.406;2024-03-06T00:33:23;22.48;;;11.05;;
40983;SDS011;26714;51.332;12.406;2024-03-06T00:35:49;18.42;;;9.00;;
40983;SDS011;26714;51.332;12.406;2024-03-06T00:38:21;21.80;;;10.45;;
40983;SDS011;26714;51.332;12.406;2024-03-06T00:40:51;21.27;;;10.18;;
40983;SDS011;26714;51.332;12.406;2024-03-06T00:43:17;19.13;;;10.23;;
40983;SDS011;26714;51.332;12.406;2024-03-06T00:45:54;19.55;;;9.93;;
40983;SDS011;26714;51.332;12.406;2024-03-06T00:48:23;23.23;;;10.85;;
40983;SDS011;26714;51.332;12.406;2024-03-06T00:50:49;17.90;;;9.82;;
40983;SDS011;26714;51.332;12.406;2024-03-06T00:53:26;23.60;;;10.57;;
40983;SDS011;26714;51.332;12.406;2024-03-06T00:55:53;21.08;;;10.05;;
40983;SDS011;26714;51.332;12.406;2024-03-06T00:58:20;19.25;;;10.30;;
40983;SDS011;26714;51.332;12.406;2024-03-06T01:00:46;18.70;;;9.93;;
40983;SDS011;26714;51.332;12.406;2024-03-06T01:03:11;21.65;;;9.20;;
40983;SDS011;26714;51.332;12.406;2024-03-06T01:05:37;20.52;;;10.13;;
40983;SDS011;26714;51.332;12.406;2024-03-06T01:08:03;20.60;;;9.20;;
40983;SDS011;26714;51.332;12.406;2024-03-06T01:10:36;19.10;;;9.85;;
40983;SDS011;26714;51.332;12.406;2024-03-06T01:13:05;18.83;;;10.27;;
40983;SDS011;26714;51.332;12.406;2024-03-06T01:15:38;20.50;;;9.90;;
40983;SDS011;26714;51.332;12.406;2024-03-06T01:18:06;17.98;;;9.18;;
40983;SDS011;26714;51.332;12.406;2024-03-06T01:20:34;19.42;;;9.85;;
40983;SDS011;26714;51.332;12.406;2024-03-06T01:23:02;18.65;;;9.25;;
40983;SDS011;26714;51.332;12.406;2024-03-06T01:25:33;22.35;;;10.75;;
40983;SDS011;26714;51.332;12.406;2024-03-06T01:28:00;17.35;;;9.25;;
40983;SDS011;26714;51.332;12.406;2024-03-06T01:30:28;21.48;;;9.63;;
40983;SDS011;26714;51.332;12.406;2024-03-06T01:32:57;19.95;;;9.23;;
40983;SDS011;26714;51.332;12.406;2024-03-06T01:35:28;20.70;;;9.88;;
40983;SDS011;26714;51.332;12.406;2024-03-06T01:37:59;20.70;;;10.07;;
40983;SDS011;26714;51.332;12.406;2024-03-06T01:40:28;17.02;;;8.85;;
40983;SDS011;26714;51.332;12.406;2024-03-06T01:42:54;16.52;;;8.45;;
40983;SDS011;26714;51.332;12.406;2024-03-06T01:45:21;22.23;;;9.48;;
40983;SDS011;26714;51.332;12.406;2024-03-06T01:47:51;16.40;;;10.25;;
40983;SDS011;26714;51.332;12.406;2024-03-06T01:50:22;15.68;;;9.25;;
40983;SDS011;26714;51.332;12.406;2024-03-06T01:52:55;22.52;;;9.85;;
40983;SDS011;26714;51.332;12.406;2024-03-06T01:55:20;21.98;;;10.70;;
40983;SDS011;26714;51.332;12.406;2024-03-06T01:57:48;18.98;;;9.90;;
40983;SDS011;26714;51.332;12.406;2024-03-06T02:00:13;20.63;;;10.25;;
40983;SDS011;26714;51.332;12.406;2024-03-06T02:02:43;24.02;;;10.10;;
40983;SDS011;26714;51.332;12.406;2024-03-06T02:05:11;21.60;;;9.63;;
40983;SDS011;26714;51.332;12.406;2024-03-06T02:07:39;19.65;;;10.40;;
40983;SDS011;26714;51.332;12.406;2024-03-06T02:12:44;18.15;;;10.55;;
40983;SDS011;26714;51.332;12.406;2024-03-06T02:15:13;23.17;;;10.45;;
40983;SDS011;26714;51.332;12.406;2024-03-06T02:17:40;20.40;;;10.45;;
40983;SDS011;26714;51.332;12.406;2024-03-06T02:20:09;20.88;;;10.73;;
40983;SDS011;26714;51.332;12.406;2024-03-06T02:22:39;25.27;;;11.32;;
40983;SDS011;26714;51.332;12.406;2024-03-06T02:25:08;20.35;;;11.43;;
40983;SDS011;26714;51.332;12.406;2024-03-06T02:27:38;19.02;;;11.43;;
40983;SDS011;26714;51.332;12.406;2024-03-06T02:30:04;25.17;;;11.48;;
40983;SDS011;26714;51.332;12.406;2024-03-06T02:32:30;18.77;;;10.95;;
40983;SDS011;26714;51.332;12.406;2024-03-06T02:35:01;21.58;;;11.43;;
40983;SDS011;26714;51.332;12.406;2024-03-06T02:37:29;27.90;;;11.57;;
40983;SDS011;26714;51.332;12.406;2024-03-06T02:40:00;21.50;;;11.60;;
40983;SDS011;26714;51.332;12.406;2024-03-06T02:42:27;28.02;;;11.98;;
40983;SDS011;26714;51.332;12.406;2024-03-06T02:44:53;25.60;;;11.85;;
40983;SDS011;26714;51.332;12.406;2024-03-06T02:47:20;23.83;;;11.57;;
40983;SDS011;26714;51.332;12.406;2024-03-06T02:49:46;24.00;;;11.82;;
40983;SDS011;26714;51.332;12.406;2024-03-06T02:52:14;29.00;;;11.82;;
40983;SDS011;26714;51.332;12.406;2024-03-06T02:54:41;26.83;;;12.80;;
40983;SDS011;26714;51.332;12.406;2024-03-06T02:57:09;24.13;;;12.88;;
40983;SDS011;26714;51.332;12.406;2024-03-06T02:59:35;26.15;;;12.02;;
40983;SDS011;26714;51.332;12.406;2024-03-06T03:02:01;23.40;;;12.32;;
40983;SDS011;26714;51.332;12.406;2024-03-06T03:04:28;27.52;;;12.50;;
40983;SDS011;26714;51.332;12.406;2024-03-06T03:06:54;29.25;;;14.10;;
40983;SDS011;26714;51.332;12.406;2024-03-06T03:09:21;23.95;;;12.93;;
40983;SDS011;26714;51.332;12.406;2024-03-06T03:11:50;22.35;;;12.20;;
40983;SDS011;26714;51.332;12.406;2024-03-06T03:14:16;23.23;;;12.77;;
40983;SDS011;26714;51.332;12.406;2024-03-06T03:17:06;24.85;;;13.30;;
40983;SDS011;26714;51.332;12.406;2024-03-06T03:19:42;25.02;;;12.65;;
40983;SDS011;26714;51.332;12.406;2024-03-06T03:22:08;29.60;;;14.73;;
40983;SDS011;26714;51.332;12.406;2024-03-06T03:24:37;24.15;;;13.05;;
40983;SDS011;26714;51.332;12.406;2024-03-06T03:27:03;28.67;;;13.40;;
40983;SDS011;26714;51.332;12.406;2024-03-06T03:29:30;24.67;;;12.50;;
40983;SDS011;26714;51.332;12.406;2024-03-06T03:31:56;28.38;;;13.55;;
40983;SDS011;26714;51.332;12.406;2024-03-06T03:34:22;32.63;;;14.60;;
40983;SDS011;26714;51.332;12.406;2024-03-06T03:36:48;23.02;;;12.90;;
40983;SDS011;26714;51.332;12.406;2024-03-06T03:39:18;29.42;;;13.15;;
40983;SDS011;26714;51.332;12.406;2024-03-06T03:41:56;29.80;;;13.60;;
40983;SDS011;26714;51.332;12.406;2024-03-06T03:44:25;35.17;;;15.93;;
40983;SDS011;26714;51.332;12.406;2024-03-06T03:46:51;30.80;;;15.35;;
40983;SDS011;26714;51.332;12.406;2024-03-06T03:49:21;25.92;;;13.38;;
40983;SDS011;26714;51.332;12.406;2024-03-06T03:51:46;25.88;;;13.57;;
40983;SDS011;26714;51.332;12.406;2024-03-06T03:54:19;32.58;;;14.50;;
40983;SDS011;26714;51.332;12.406;2024-03-06T03:56:47;36.22;;;17.00;;
40983;SDS011;26714;51.332;12.406;2024-03-06T03:59:15;42.33;;;21.27;;
40983;SDS011;26714;51.332;12.406;2024-03-06T04:01:47;39.78;;;18.92;;
40983;SDS011;26714;51.332;12.406;2024-03-06T04:04:17;30.20;;;14.07;;
40983;SDS011;26714;51.332;12.406;2024-03-06T04:06:43;31.95;;;13.65;;
40983;SDS011;26714;51.332;12.406;2024-03-06T04:09:12;29.23;;;13.80;;
40983;SDS011;26714;51.332;12.406;2024-03-06T04:11:42;28.73;;;13.45;;
40983;SDS011;26714;51.332;12.406;2024-03-06T04:14:11;29.63;;;14.85;;
40983;SDS011;26714;51.332;12.406;2024-03-06T04:16:40;31.30;;;14.50;;
40983;SDS011;26714;51.332;12.406;2024-03-06T04:19:12;26.05;;;14.13;;
40983;SDS011;26714;51.332;12.406;2024-03-06T04:21:42;24.52;;;14.23;;
40983;SDS011;26714;51.332;12.406;2024-03-06T04:24:09;31.17;;;14.23;;
40983;SDS011;26714;51.332;12.406;2024-03-06T04:26:36;23.88;;;13.38;;
40983;SDS011;26714;51.332;12.406;2024-03-06T04:29:03;27.45;;;14.98;;
40983;SDS011;26714;51.332;12.406;2024-03-06T04:31:29;24.73;;;12.40;;
40983;SDS011;26714;51.332;12.406;2024-03-06T04:33:56;33.20;;;14.38;;
40983;SDS011;26714;51.332;12.406;2024-03-06T04:36:28;28.17;;;14.10;;
40983;SDS011;26714;51.332;12.406;2024-03-06T04:38:57;34.90;;;15.15;;
40983;SDS011;26714;51.332;12.406;2024-03-06T04:41:23;26.08;;;14.30;;
40983;SDS011;26714;51.332;12.406;2024-03-06T04:43:49;34.45;;;14.48;;
40983;SDS011;26714;51.332;12.406;2024-03-06T04:46:19;30.50;;;15.15;;
40983;SDS011;26714;51.332;12.406;2024-03-06T04:48:54;29.80;;;15.13;;
40983;SDS011;26714;51.332;12.406;2024-03-06T04:51:25;28.40;;;13.80;;
40983;SDS011;26714;51.332;12.406;2024-03-06T04:53:54;40.38;;;15.68;;
40983;SDS011;26714;51.332;12.406;2024-03-06T04:56:19;32.35;;;14.52;;
40983;SDS011;26714;51.332;12.406;2024-03-06T04:58:46;33.10;;;14.55;;
40983;SDS011;26714;51.332;12.406;2024-03-06T05:01:14;28.90;;;15.05;;
40983;SDS011;26714;51.332;12.406;2024-03-06T05:03:49;38.40;;;16.80;;
40983;SDS011;26714;51.332;12.406;2024-03-06T05:06:16;30.60;;;15.57;;
40983;SDS011;26714;51.332;12.406;2024-03-06T05:08:44;28.98;;;14.98;;
40983;SDS011;26714;51.332;12.406;2024-03-06T05:11:09;28.50;;;15.07;;
40983;SDS011;26714;51.332;12.406;2024-03-06T05:13:37;32.60;;;16.48;;
40983;SDS011;26714;51.332;12.406;2024-03-06T05:16:08;29.08;;;15.50;;
40983;SDS011;26714;51.332;12.406;2024-03-06T05:19:28;27.33;;;14.60;;
40983;SDS011;26714;51.332;12.406;2024-03-06T05:21:58;31.83;;;15.48;;
40983;SDS011;26714;51.332;12.406;2024-03-06T05:24:24;36.75;;;15.40;;
40983;SDS011;26714;51.332;12.406;2024-03-06T05:26:50;33.63;;;15.52;;
40983;SDS011;26714;51.332;12.406;2024-03-06T05:29:17;33.00;;;16.02;;
40983;SDS011;26714;51.332;12.406;2024-03-06T05:31:44;29.05;;;15.50;;
40983;SDS011;26714;51.332;12.406;2024-03-06T05:34:09;34.83;;;15.32;;
40983;SDS011;26714;51.332;12.406;2024-03-06T05:36:35;31.23;;;16.60;;
40983;SDS011;26714;51.332;12.406;2024-03-06T05:39:01;35.33;;;16.70;;
40983;SDS011;26714;51.332;12.406;2024-03-06T05:41:28;32.75;;;16.58;;
40983;SDS011;26714;51.332;12.406;2024-03-06T05:43:54;32.53;;;16.33;;
40983;SDS011;26714;51.332;12.406;2024-03-06T05:46:20;35.53;;;16.65;;
40983;SDS011;26714;51.332;12.406;2024-03-06T05:48:46;34.45;;;16.83;;
40983;SDS011;26714;51.332;12.406;2024-03-06T05:51:16;29.10;;;15.15;;
40983;SDS011;26714;51.332;12.406;2024-03-06T05:56:19;32.03;;;14.50;;
40983;SDS011;26714;51.332;12.406;2024-03-06T05:58:44;28.73;;;15.02;;
40983;SDS011;26714;51.332;12.406;2024-03-06T06:01:14;33.35;;;16.55;;
40983;SDS011;26714;51.332;12.406;2024-03-06T06:03:41;27.00;;;15.18;;
40983;SDS011;26714;51.332;12.406;2024-03-06T06:06:07;37.03;;;15.55;;
40983;SDS011;26714;51.332;12.406;2024-03-06T06:08:36;30.52;;;14.80;;
40983;SDS011;26714;51.332;12.406;2024-03-06T06:11:03;33.13;;;16.42;;
40983;SDS011;26714;51.332;12.406;2024-03-06T06:13:29;29.50;;;15.23;;
40983;SDS011;26714;51.332;12.406;2024-03-06T06:15:57;30.70;;;14.52;;
40983;SDS011;26714;51.332;12.406;2024-03-06T06:18:23;36.37;;;14.93;;
40983;SDS011;26714;51.332;12.406;2024-03-06T06:20:48;34.80;;;16.92;;
40983;SDS011;26714;51.332;12.406;2024-03-06T06:23:16;32.05;;;14.15;;
40983;SDS011;26714;51.332;12.406;2024-03-06T06:25:44;24.30;;;13.40;;
40983;SDS011;26714;51.332;12.406;2024-03-06T06:28:10;32.53;;;16.10;;
40983;SDS011;26714;51.332;12.406;2024-03-06T06:30:35;30.38;;;14.85;;
40983;SDS011;26714;51.332;12.406;2024-03-06T06:33:04;30.98;;;14.30;;
40983;SDS011;26714;51.332;12.406;2024-03-06T06:35:30;34.42;;;16.23;;
40983;SDS011;26714;51.332;12.406;2024-03-06T06:37:56;32.78;;;15.18;;
40983;SDS011;26714;51.332;12.406;2024-03-06T06:40:21;29.83;;;14.55;;
40983;SDS011;26714;51.332;12.406;2024-03-06T06:42:47;32.10;;;16.98;;
40983;SDS011;26714;51.332;12.406;2024-03-06T06:45:18;34.73;;;15.70;;
40983;SDS011;26714;51.332;12.406;2024-03-06T06:47:44;37.80;;;15.73;;
40983;SDS011;26714;51.332;12.406;2024-03-06T06:50:09;36.83;;;15.98;;
40983;SDS011;26714;51.332;12.406;2024-03-06T06:52:37;33.10;;;16.23;;
40983;SDS011;26714;51.332;12.406;2024-03-06T06:55:03;30.42;;;15.80;;
40983;SDS011;26714;51.332;12.406;2024-03-06T06:57:30;28.10;;;15.02;;
40983;SDS011;26714;51.332;12.406;2024-03-06T06:59:56;38.35;;;16.20;;
40983;SDS011;26714;51.332;12.406;2024-03-06T07:02:21;31.38;;;16.55;;
40983;SDS011;26714;51.332;12.406;2024-03-06T07:04:47;31.15;;;15.38;;
40983;SDS011;26714;51.332;12.406;2024-03-06T07:07:14;29.67;;;16.17;;
40983;SDS011;26714;51.332;12.406;2024-03-06T07:09:39;37.47;;;15.93;;
40983;SDS011;26714;51.332;12.406;2024-03-06T07:12:05;30.17;;;14.38;;
40983;SDS011;26714;51.332;12.406;2024-03-06T07:14:34;34.00;;;16.48;;
40983;SDS011;26714;51.332;12.406;2024-03-06T07:17:00;29.95;;;15.65;;
40983;SDS011;26714;51.332;12.406;2024-03-06T07:19:27;38.60;;;16.92;;
40983;SDS011;26714;51.332;12.406;2024-03-06T07:21:53;35.28;;;17.20;;
40983;SDS011;26714;51.332;12.406;2024-03-06T07:24:19;33.28;;;15.55;;
40983;SDS011;26714;51.332;12.406;2024-03-06T07:26:47;25.30;;;12.80;;
40983;SDS011;26714;51.332;12.406;2024-03-06T07:29:17;36.45;;;16.33;;
40983;SDS011;26714;51.332;12.406;2024-03-06T07:31:45;37.67;;;17.92;;
40983;SDS011;26714;51.332;12.406;2024-03-06T07:34:13;38.22;;;17.52;;
40983;SDS011;26714;51.332;12.406;2024-03-06T07:36:44;30.17;;;16.30;;
40983;SDS011;26714;51.332;12.406;2024-03-06T07:39:11;32.72;;;16.52;;
40983;SDS011;26714;51.332;12.406;2024-03-06T07:41:37;34.13;;;16.20;;
40983;SDS011;26714;51.332;12.406;2024-03-06T07:44:03;34.15;;;16.60;;
40983;SDS011;26714;51.332;12.406;2024-03-06T07:46:28;34.95;;;16.58;;
40983;SDS011;26714;51.332;12.406;2024-03-06T07:48:54;35.70;;;16.48;;
40983;SDS011;26714;51.332;12.406;2024-03-06T07:51:23;34.55;;;17.27;;
40983;SDS011;26714;51.332;12.406;2024-03-06T07:53:48;40.50;;;18.27;;
40983;SDS011;26714;51.332;12.406;2024-03-06T07:56:19;36.13;;;18.25;;
40983;SDS011;26714;51.332;12.406;2024-03-06T07:58:44;36.40;;;18.45;;
40983;SDS011;26714;51.332;12.406;2024-03-06T08:01:13;31.60;;;16.83;;
40983;SDS011;26714;51.332;12.406;2024-03-06T08:03:39;39.28;;;18.55;;
40983;SDS011;26714;51.332;12.406;2024-03-06T08:06:05;41.90;;;18.30;;
40983;SDS011;26714;51.332;12.406;2024-03-06T08:08:31;40.00;;;19.30;;
40983;SDS011;26714;51.332;12.406;2024-03-06T08:10:56;40.72;;;18.40;;
40983;SDS011;26714;51.332;12.406;2024-03-06T08:13:22;38.53;;;19.27;;
40983;SDS011;26714;51.332;12.406;2024-03-06T08:15:48;34.03;;;17.58;;
40983;SDS011;26714;51.332;12.406;2024-03-06T08:18:13;38.38;;;18.92;;
40983;SDS011;26714;51.332;12.406;2024-03-06T08:20:40;38.33;;;17.48;;
40983;SDS011;26714;51.332;12.406;2024-03-06T08:23:08;35.42;;;18.23;;
40983;SDS011;26714;51.332;12.406;2024-03-06T08:25:35;35.38;;;18.05;;
40983;SDS011;26714;51.332;12.406;2024-03-06T08:28:06;40.47;;;19.00;;
40983;SDS011;26714;51.332;12.406;2024-03-06T08:30:38;39.60;;;19.00;;
40983;SDS011;26714;51.332;12.406;2024-03-06T08:33:08;39.30;;;18.80;;
40983;SDS011;26714;51.332;12.406;2024-03-06T08:35:34;47.65;;;20.45;;
40983;SDS011;26714;51.332;12.406;2024-03-06T08:38:00;39.80;;;19.70;;
40983;SDS011;26714;51.332;12.406;2024-03-06T08:40:29;43.30;;;19.95;;
40983;SDS011;26714;51.332;12.406;2024-03-06T08:42:56;39.15;;;20.05;;
40983;SDS011;26714;51.332;12.406;2024-03-06T08:45:30;35.15;;;19.17;;
40983;SDS011;26714;51.332;12.406;2024-03-06T08:47:59;38.30;;;18.30;;
40983;SDS011;26714;51.332;12.406;2024-03-06T08:50:24;47.38;;;20.35;;
40983;SDS011;26714;51.332;12.406;2024-03-06T08:52:50;39.92;;;21.42;;
40983;SDS011;26714;51.332;12.406;2024-03-06T08:55:20;43.15;;;20.55;;
40983;SDS011;26714;51.332;12.406;2024-03-06T08:57:48;46.70;;;19.98;;
40983;SDS011;26714;51.332;12.406;2024-03-06T09:00:15;40.95;;;19.20;;
40983;SDS011;26714;51.332;12.406;2024-03-06T09:02:45;41.28;;;19.80;;
40983;SDS011;26714;51.332;12.406;2024-03-06T09:05:12;45.53;;;19.65;;
40983;SDS011;26714;51.332;12.406;2024-03-06T09:07:45;39.60;;;20.25;;
40983;SDS011;26714;51.332;12.406;2024-03-06T09:12:37;38.15;;;18.38;;
40983;SDS011;26714;51.332;12.406;2024-03-06T09:15:03;37.83;;;20.10;;
40983;SDS011;26714;51.332;12.406;2024-03-06T09:17:29;39.47;;;20.25;;
40983;SDS011;26714;51.332;12.406;2024-03-06T09:20:02;47.88;;;22.52;;
40983;SDS011;26714;51.332;12.406;2024-03-06T09:22:41;43.28;;;21.80;;
40983;SDS011;26714;51.332;12.406;2024-03-06T09:25:30;41.92;;;20.83;;
40983;SDS011;26714;51.332;12.406;2024-03-06T09:27:56;42.05;;;21.60;;
40983;SDS011;26714;51.332;12.406;2024-03-06T09:30:27;47.25;;;22.02;;
40983;SDS011;26714;51.332;12.406;2024-03-06T09:32:53;42.90;;;20.73;;
40983;SDS011;26714;51.332;12.406;2024-03-06T09:35:20;44.28;;;21.30;;
40983;SDS011;26714;51.332;12.406;2024-03-06T09:37:46;42.67;;;20.60;;
40983;SDS011;26714;51.332;12.406;2024-03-06T09:40:20;47.65;;;22.30;;
40983;SDS011;26714;51.332;12.406;2024-03-06T09:42:54;40.60;;;21.17;;
40983;SDS011;26714;51.332;12.406;2024-03-06T09:45:22;47.10;;;21.65;;
40983;SDS011;26714;51.332;12.406;2024-03-06T09:47:52;45.92;;;21.80;;
40983;SDS011;26714;51.332;12.406;2024-03-06T09:50:22;43.33;;;21.92;;
40983;SDS011;26714;51.332;12.406;2024-03-06T09:52:50;42.92;;;22.65;;
40983;SDS011;26714;51.332;12.406;2024-03-06T09:55:18;44.42;;;22.05;;
40983;SDS011;26714;51.332;12.406;2024-03-06T09:57:43;41.42;;;22.20;;
40983;SDS011;26714;51.332;12.406;2024-03-06T10:00:09;39.50;;;21.13;;
40983;SDS011;26714;51.332;12.406;2024-03-06T10:02:38;43.42;;;20.15;;
40983;SDS011;26714;51.332;12.406;2024-03-06T10:05:20;43.20;;;21.30;;
40983;SDS011;26714;51.332;12.406;2024-03-06T10:07:45;41.53;;;22.15;;
40983;SDS011;26714;51.332;12.406;2024-03-06T10:10:11;42.45;;;20.73;;
40983;SDS011;26714;51.332;12.406;2024-03-06T10:12:36;41.03;;;20.38;;
40983;SDS011;26714;51.332;12.406;2024-03-06T10:15:02;42.38;;;20.23;;
40983;SDS011;26714;51.332;12.406;2024-03-06T10:17:29;43.20;;;21.20;;
40983;SDS011;26714;51.332;12.406;2024-03-06T10:19:55;38.88;;;21.08;;
40983;SDS011;26714;51.332;12.406;2024-03-06T10:22:20;44.40;;;21.35;;
40983;SDS011;26714;51.332;12.406;2024-03-06T10:24:46;44.92;;;21.15;;
40983;SDS011;26714;51.332;12.406;2024-03-06T10:27:15;44.42;;;21.13;;
40983;SDS011;26714;51.332;12.406;2024-03-06T10:29:44;44.75;;;21.67;;
40983;SDS011;26714;51.332;12.406;2024-03-06T10:32:10;43.25;;;19.95;;
40983;SDS011;26714;51.332;12.406;2024-03-06T10:34:36;39.00;;;20.33;;
40983;SDS011;26714;51.332;12.406;2024-03-06T10:37:02;44.17;;;19.90;;
40983;SDS011;26714;51.332;12.406;2024-03-06T10:39:34;36.72;;;19.58;;
40983;SDS011;26714;51.332;12.406;2024-03-06T10:42:02;36.55;;;20.00;;
40983;SDS011;26714;51.332;12.406;2024-03-06T10:44:28;40.95;;;21.10;;
40983;SDS011;26714;51.332;12.406;2024-03-06T10:47:08;36.40;;;19.95;;
40983;SDS011;26714;51.332;12.406;2024-03-06T10:49:34;38.90;;;21.02;;
40983;SDS011;26714;51.332;12.406;2024-03-06T10:52:01;42.22;;;22.02;;
40983;SDS011;26714;51.332;12.406;2024-03-06T10:54:27;39.97;;;19.48;;
40983;SDS011;26714;51.332;12.406;2024-03-06T10:56:54;44.35;;;20.48;;
40983;SDS011;26714;51.332;12.406;2024-03-06T10:59:20;37.38;;;21.67;;
40983;SDS011;26714;51.332;12.406;2024-03-06T11:01:46;42.17;;;20.45;;
40983;SDS011;26714;51.332;12.406;2024-03-06T11:04:12;40.53;;;21.73;;
40983;SDS011;26714;51.332;12.406;2024-03-06T11:06:40;36.63;;;20.35;;
40983;SDS011;26714;51.332;12.406;2024-03-06T11:09:06;40.08;;;21.10;;
40983;SDS011;26714;51.332;12.406;2024-03-06T11:11:47;35.90;;;21.15;;
40983;SDS011;26714;51.332;12.406;2024-03-06T11:14:12;43.08;;;21.17;;
40983;SDS011;26714;51.332;12.406;2024-03-06T11:17:01;39.53;;;21.10;;
40983;SDS011;26714;51.332;12.406;2024-03-06T11:19:28;32.38;;;19.10;;
40983;SDS011;26714;51.332;12.406;2024-03-06T11:21:54;34.33;;;18.45;;
40983;SDS011;26714;51.332;12.406;2024-03-06T11:24:26;33.05;;;18.58;;
40983;SDS011;26714;51.332;12.406;2024-03-06T11:30:27;34.03;;;19.40;;
40983;SDS011;26714;51.332;12.406;2024-03-06T11:32:24;31.55;;;18.08;;
40983;SDS011;26714;51.332;12.406;2024-03-06T11:34:50;33.38;;;16.88;;
40983;SDS011;26714;51.332;12.406;2024-03-06T11:37:20;28.27;;;16.48;;
40983;SDS011;26714;51.332;12.406;2024-03-06T11:39:47;30.95;;;16.45;;
40983;SDS011;26714;51.332;12.406;2024-03-06T11:42:15;28.23;;;16.50;;
40983;SDS011;26714;51.332;12.406;2024-03-06T11:44:56;28.67;;;14.73;;
40983;SDS011;26714;51.332;12.406;2024-03-06T11:47:31;30.33;;;15.50;;
40983;SDS011;26714;51.332;12.406;2024-03-06T11:49:58;30.85;;;15.10;;
40983;SDS011;26714;51.332;12.406;2024-03-06T11:52:30;35.25;;;17.00;;
40983;SDS011;26714;51.332;12.406;2024-03-06T11:55:01;30.83;;;17.92;;
40983;SDS011;26714;51.332;12.406;2024-03-06T11:57:37;27.70;;;16.95;;
40983;SDS011;26714;51.332;12.406;2024-03-06T12:00:26;29.98;;;17.40;;
40983;SDS011;26714;51.332;12.406;2024-03-06T12:05:26;32.95;;;17.83;;
40983;SDS011;26714;51.332;12.406;2024-03-06T12:07:56;36.17;;;19.35;;
40983;SDS011;26714;51.332;12.406;2024-03-06T12:10:26;31.58;;;19.00;;
40983;SDS011;26714;51.332;12.406;2024-03-06T12:12:59;33.05;;;19.02;;
40983;SDS011;26714;51.332;12.406;2024-03-06T12:15:32;27.55;;;16.92;;
40983;SDS011;26714;51.332;12.406;2024-03-06T12:18:09;32.67;;;17.05;;
40983;SDS011;26714;51.332;12.406;2024-03-06T12:20:44;29.42;;;16.00;;
40983;SDS011;26714;51.332;12.406;2024-03-06T12:23:19;28.40;;;15.57;;
40983;SDS011;26714;51.332;12.406;2024-03-06T12:26:02;33.08;;;16.90;;
40983;SDS011;26714;51.332;12.406;2024-03-06T12:29:02;26.17;;;15.20;;
40983;SDS011;26714;51.332;12.406;2024-03-06T12:31:37;27.90;;;14.90;;
40983;SDS011;26714;51.332;12.406;2024-03-06T12:34:06;25.42;;;14.48;;
40983;SDS011;26714;51.332;12.406;2024-03-06T12:36:34;24.77;;;14.00;;
40983;SDS011;26714;51.332;12.406;2024-03-06T12:39:06;22.50;;;14.38;;
40983;SDS011;26714;51.332;12.406;2024-03-06T12:42:15;24.70;;;13.43;;
40983;SDS011;26714;51.332;12.406;2024-03-06T12:44:50;25.35;;;15.25;;
40983;SDS011;26714;51.332;12.406;2024-03-06T12:47:59;26.73;;;16.23;;
40983;SDS011;26714;51.332;12.406;2024-03-06T12:50:35;27.52;;;16.05;;
40983;SDS011;26714;51.332;12.406;2024-03-06T12:53:09;24.00;;;15.25;;
40983;SDS011;26714;51.332;12.406;2024-03-06T12:56:01;29.23;;;15.82;;
40983;SDS011;26714;51.332;12.406;2024-03-06T12:59:11;27.13;;;14.60;;
40983;SDS011;26714;51.332;12.406;2024-03-06T13:01:38;26.52;;;15.95;;
40983;SDS011;26714;51.332;12.406;2024-03-06T13:04:18;26.70;;;15.02;;
40983;SDS011;26714;51.332;12.406;2024-03-06T13:06:53;24.90;;;15.85;;
40983;SDS011;26714;51.332;12.406;2024-03-06T13:10:03;27.50;;;15.00;;
40983;SDS011;26714;51.332;12.406;2024-03-06T13:12:45;26.67;;;14.18;;
40983;SDS011;26714;51.332;12.406;2024-03-06T13:15:56;28.20;;;15.30;;
40983;SDS011;26714;51.332;12.406;2024-03-06T13:19:01;31.30;;;16.00;;
40983;SDS011;26714;51.332;12.406;2024-03-06T13:21:41;26.20;;;15.13;;
40983;SDS011;26714;51.332;12.406;2024-03-06T13:24:57;30.40;;;17.17;;
40983;SDS011;26714;51.332;12.406;2024-03-06T13:27:54;31.10;;;15.55;;
40983;SDS011;26714;51.332;12.406;2024-03-06T13:31:11;24.45;;;14.15;;
40983;SDS011;26714;51.332;12.406;2024-03-06T13:34:05;26.70;;;15.23;;
40983;SDS011;26714;51.332;12.406;2024-03-06T13:37:11;24.73;;;13.88;;
40983;SDS011;26714;51.332;12.406;2024-03-06T13:39:54;32.53;;;14.45;;
40983;SDS011;26714;51.332;12.406;2024-03-06T13:42:45;23.30;;;14.00;;
40983;SDS011;26714;51.332;12.406;2024-03-06T13:45:25;26.42;;;14.23;;
40983;SDS011;26714;51.332;12.406;2024-03-06T13:48:16;24.70;;;13.20;;
40983;SDS011;26714;51.332;12.406;2024-03-06T13:50:43;26.38;;;14.90;;
40983;SDS011;26714;51.332;12.406;2024-03-06T13:53:13;34.83;;;14.38;;
40983;SDS011;26714;51.332;12.406;2024-03-06T13:55:40;20.17;;;12.40;;
40983;SDS011;26714;51.332;12.406;2024-03-06T13:58:07;21.90;;;11.93;;
40983;SDS011;26714;51.332;12.406;2024-03-06T14:00:32;24.27;;;12.02;;
40983;SDS011;26714;51.332;12.406;2024-03-06T14:03:00;58.97;;;13.77;;
40983;SDS011;26714;51.332;12.406;2024-03-06T14:05:32;26.88;;;11.63;;
40983;SDS011;26714;51.332;12.406;2024-03-06T14:07:58;18.30;;;11.18;;
40983;SDS011;26714;51.332;12.406;2024-03-06T14:12:53;16.23;;;10.10;;
40983;SDS011;26714;51.332;12.406;2024-03-06T14:15:25;15.75;;;9.65;;
40983;SDS011;26714;51.332;12.406;2024-03-06T14:18:22;18.87;;;9.23;;
40983;SDS011;26714;51.332;12.406;2024-03-06T14:20:55;17.95;;;9.07;;
40983;SDS011;26714;51.332;12.406;2024-03-06T14:23:27;14.82;;;8.13;;
40983;SDS011;26714;51.332;12.406;2024-03-06T14:26:20;13.55;;;7.53;;
40983;SDS011;26714;51.332;12.406;2024-03-06T14:28:51;15.90;;;7.78;;
40983;SDS011;26714;51.332;12.406;2024-03-06T14:31:29;14.18;;;6.93;;
40983;SDS011;26714;51.332;12.406;2024-03-06T14:34:33;14.68;;;7.28;;
40983;SDS011;26714;51.332;12.406;2024-03-06T14:37:02;16.50;;;7.25;;
40983;SDS011;26714;51.332;12.406;2024-03-06T14:39:32;11.73;;;7.90;;
40983;SDS011;26714;51.332;12.406;2024-03-06T14:42:24;12.63;;;7.35;;
40983;SDS011;26714;51.332;12.406;2024-03-06T14:45:01;16.33;;;8.13;;
40983;SDS011;26714;51.332;12.406;2024-03-06T14:47:52;13.93;;;7.85;;